James D. Moran — WDI2873 — position and weather

sailwx.info

Track history (hours):
 
Tides and Currents Weather Stations Pressure Air Temp Water Temp Dewpoint Dewpoint Depression Visibility Wind Speed Wind Dir Waves Ship Positions

James D. Moran

Owner: Moran Towing Corporation, New Canaan, CT. More information available from US FCC via Universal Licensing System and Coast Guard Vessel Documentation Center.

Last reported at 2017-Oct-19 03:30 UTC. Time now 2017-Oct-19 03:51 UTC.
Position N 40°41' W 074°08'.

Length 28 m; draft 5.2 m.

Type: Tug. MMSI: 367682610.

Date/timePositionNaut miles runAvg speedWind from/ knotsBaromVisibWave heightAir tempDewpointWater temp
2017-Oct-19 03:30N 40°41' W 074°08'0 0.7
2017-Oct-19 03:00N 40°41' W 074°08'3 5.3
2017-Oct-19 02:30N 40°38' W 074°09'3 5.7
2017-Oct-19 02:00N 40°39' W 074°05'2 3.8
2017-Oct-19 01:30N 40°38' W 074°03'2 4.3
2017-Oct-19 01:01N 40°40' W 074°04'0 0.0
2017-Oct-19 00:30N 40°40' W 074°04'1 1.7
2017-Oct-19 00:00N 40°40' W 074°03'2 4.3
2017-Oct-18 23:30N 40°41' W 074°01'0 0.2
2017-Oct-18 23:01N 40°41' W 074°01'1 1.8
2017-Oct-18 22:30N 40°41' W 074°02'5 9.7
2017-Oct-18 22:00N 40°39' W 074°08'2 4.5
2017-Oct-18 21:30N 40°39' W 074°11'1 1.1
2017-Oct-18 21:00N 40°39' W 074°11'1 2.0
2017-Oct-18 20:30N 40°39' W 074°10'2 1.7
2017-Oct-18 19:31N 40°38' W 074°08'0 0.3
2017-Oct-18 19:30N 40°39' W 074°08'0 0.0
2017-Oct-18 19:00N 40°38' W 074°08'3 5.6
2017-Oct-18 18:31N 40°39' W 074°04'3 5.9
2017-Oct-18 18:00N 40°39' W 074°08'1 2.8
2017-Oct-18 17:30N 40°40' W 074°09'0 0.2
2017-Oct-18 17:00N 40°40' W 074°09'2 3.2
2017-Oct-18 16:30N 40°38' W 074°08'0 0.0
2017-Oct-18 16:00N 40°38' W 074°08'0 0.0
2017-Oct-18 14:48N 40°38' W 074°08'0 0.0
2017-Oct-18 12:51N 40°38' W 074°08'0 0.0
2017-Oct-18 12:07N 40°38' W 074°08'0 0.0
2017-Oct-18 12:00N 40°38' W 074°08'0 0.0
2017-Oct-18 11:30N 40°38' W 074°08'1 1.1
2017-Oct-18 11:00N 40°39' W 074°09'2 4.5
2017-Oct-18 10:30N 40°41' W 074°09'0 0.8
2017-Oct-18 10:01N 40°41' W 074°08'2 3.2
2017-Oct-18 09:30N 40°39' W 074°09'2 5.0
2017-Oct-18 09:00N 40°39' W 074°06'3 5.7
2017-Oct-18 08:30N 40°37' W 074°03'1 2.7
2017-Oct-18 08:00N 40°38' W 074°04'0 0.0
2017-Oct-18 07:30N 40°38' W 074°04'0 0.0
2017-Oct-18 07:01N 40°38' W 074°04'2 4.3
2017-Oct-18 06:30N 40°40' W 074°04'0 0.9
2017-Oct-18 06:00N 40°40' W 074°05'3 5.5
2017-Oct-18 05:30N 40°39' W 074°08'0 0.2
2017-Oct-18 05:00N 40°38' W 074°08'0 0.0
2017-Oct-18 04:30N 40°38' W 074°08'0 0.0
2017-Oct-18 04:00N 40°38' W 074°08'0 0.0
2017-Oct-18 03:30N 40°38' W 074°08'0 0.0
2017-Oct-18 03:00N 40°38' W 074°08'0 0.0
2017-Oct-18 02:30N 40°38' W 074°08'0 0.0
2017-Oct-18 02:00N 40°38' W 074°08'0 0.0
2017-Oct-18 01:30N 40°38' W 074°08'0 0.0
2017-Oct-18 01:00N 40°38' W 074°08'0 0.0
2017-Oct-18 00:30N 40°38' W 074°08'0 0.0
2017-Oct-18 00:00N 40°38' W 074°08'2 4.1
2017-Oct-17 23:30N 40°39' W 074°05'1 2.4
2017-Oct-17 23:00N 40°40' W 074°05'1 3.0
2017-Oct-17 22:30N 40°39' W 074°04'3 6.2
2017-Oct-17 21:59N 40°38' W 074°08'0 0.0
2017-Oct-17 21:30N 40°38' W 074°08'0 0.0
2017-Oct-17 21:00N 40°38' W 074°08'0 0.0
2017-Oct-17 20:30N 40°38' W 074°08'0 0.0
2017-Oct-17 20:00N 40°38' W 074°08'0 0.0
2017-Oct-17 19:30N 40°38' W 074°08'0 0.0
2017-Oct-17 19:00N 40°38' W 074°08'0 0.0
2017-Oct-17 18:29N 40°38' W 074°08'0 0.0
2017-Oct-17 17:59N 40°38' W 074°08'0 0.0
2017-Oct-17 17:30N 40°38' W 074°08'0 0.0
2017-Oct-17 17:00N 40°38' W 074°08'0 0.0
2017-Oct-17 16:30N 40°38' W 074°08'3 5.1
2017-Oct-17 16:00N 40°41' W 074°09'0 0.5
2017-Oct-17 15:30N 40°41' W 074°09'2 3.8
2017-Oct-17 14:54N 40°39' W 074°09'2 5.0
2017-Oct-17 14:29N 40°39' W 074°06'3 5.3
2017-Oct-17 14:00N 40°38' W 074°03'0 0.7
2017-Oct-17 13:30N 40°38' W 074°04'2 4.1
2017-Oct-17 13:00N 40°39' W 074°06'0 0.0
2017-Oct-17 12:30N 40°39' W 074°06'0 0.0
2017-Oct-17 12:00N 40°39' W 074°06'1 2.0
2017-Oct-17 11:30N 40°39' W 074°07'2 3.0
2017-Oct-17 11:00N 40°40' W 074°08'1 2.0
2017-Oct-17 10:30N 40°41' W 074°09'0 0.2
2017-Oct-17 10:00N 40°41' W 074°09'2 4.3
2017-Oct-17 09:30N 40°39' W 074°09'0 0.4
2017-Oct-17 09:00N 40°39' W 074°09'1 1.9
2017-Oct-17 08:30N 40°40' W 074°09'0 0.0
2017-Oct-17 08:00N 40°40' W 074°09'1 2.4
2017-Oct-17 07:30N 40°39' W 074°09'1 1.0
2017-Oct-17 06:50N 40°38' W 074°08'0 0.0
2017-Oct-17 06:29N 40°38' W 074°08'0 0.2
2017-Oct-17 06:00N 40°39' W 074°08'4 7.7
2017-Oct-17 05:30N 40°37' W 074°03'1 1.5
2017-Oct-17 05:00N 40°37' W 074°03'3 5.3
2017-Oct-17 04:30N 40°39' W 074°06'0 0.4
2017-Oct-17 03:43N 40°39' W 074°07'1 4.5
2017-Oct-17 03:30N 40°38' W 074°08'0 0.0
2017-Oct-17 03:00N 40°38' W 074°08'0 0.0
2017-Oct-17 02:30N 40°38' W 074°08'0 0.0
2017-Oct-17 02:00N 40°38' W 074°08'0 0.0
2017-Oct-17 01:30N 40°38' W 074°08'0 0.0
2017-Oct-17 01:00N 40°38' W 074°08'0 0.0
2017-Oct-17 00:30N 40°38' W 074°08'0 0.0
2017-Oct-17 00:00N 40°38' W 074°08'0 0.0
2017-Oct-16 23:30N 40°38' W 074°08'0 0.0
2017-Oct-16 23:00N 40°38' W 074°08'0 0.0
2017-Oct-16 22:30N 40°38' W 074°08'0 0.4
2017-Oct-16 22:00N 40°39' W 074°08'5 9.2
2017-Oct-16 21:30N 40°41' W 074°02'510.4
2017-Oct-16 21:00N 40°46' W 074°00'0 0.6
2017-Oct-16 20:30N 40°46' W 074°00'1 2.6
2017-Oct-16 20:00N 40°45' W 074°01'5 9.6
2017-Oct-16 19:30N 40°40' W 074°03'2 3.5
2017-Oct-16 19:00N 40°40' W 074°05'0 0.0
2017-Oct-16 18:30N 40°40' W 074°05'1 2.0
2017-Oct-16 18:00N 40°40' W 074°04'3 5.6
2017-Oct-16 17:30N 40°37' W 074°03'3 5.4
2017-Oct-16 17:01N 40°39' W 074°06'0 0.1
2017-Oct-16 16:30N 40°39' W 074°06'0 0.8
2017-Oct-16 16:00N 40°39' W 074°05'0 0.0
2017-Oct-16 15:30N 40°39' W 074°05'0 0.1
2017-Oct-16 15:00N 40°39' W 074°05'3 5.5
2017-Oct-16 14:30N 40°39' W 074°09'1 1.1
2017-Oct-16 13:30N 40°40' W 074°09'0 0.0
2017-Oct-16 12:59N 40°40' W 074°09'0 0.0
2017-Oct-16 12:30N 40°40' W 074°09'1 2.5
2017-Oct-16 12:00N 40°41' W 074°09'1 1.5
2017-Oct-16 11:30N 40°40' W 074°08'2 3.3
2017-Oct-16 11:00N 40°39' W 074°08'3 5.2
2017-Oct-16 10:30N 40°39' W 074°05'3 5.9
2017-Oct-16 10:01N 40°36' W 074°03'2 3.9
2017-Oct-16 09:30N 40°38' W 074°04'3 6.3
2017-Oct-16 09:00N 40°38' W 074°08'0 0.0
2017-Oct-16 08:22N 40°38' W 074°08'0 0.0
2017-Oct-16 08:00N 40°38' W 074°08'0 0.0
2017-Oct-16 07:30N 40°38' W 074°08'0 0.0
2017-Oct-16 07:00N 40°38' W 074°08'0 0.0
2017-Oct-16 06:30N 40°38' W 074°08'0 0.0
2017-Oct-16 06:00N 40°38' W 074°08'0 0.0
2017-Oct-16 05:30N 40°38' W 074°08'0 0.0
2017-Oct-16 04:59N 40°38' W 074°08'1 2.7
2017-Oct-16 04:30N 40°39' W 074°06'511.0
2017-Oct-16 04:01N 40°43' W 074°01'3 6.4
2017-Oct-16 03:30N 40°46' W 073°60'0 0.1
2017-Oct-16 03:01N 40°46' W 073°60'0 0.3
2017-Oct-16 02:30N 40°46' W 073°60'2 4.2
2017-Oct-16 02:01N 40°44' W 074°01'611.3
2017-Oct-16 01:30N 40°39' W 074°04'3 5.8
2017-Oct-16 01:00N 40°38' W 074°08'0 0.0
2017-Oct-16 00:29N 40°38' W 074°08'0 0.0
2017-Oct-16 00:00N 40°38' W 074°08'0 0.0
2017-Oct-15 23:30N 40°38' W 074°08'0 0.0
2017-Oct-15 23:00N 40°38' W 074°08'0 0.0
2017-Oct-15 22:30N 40°38' W 074°08'0 0.0
2017-Oct-15 21:59N 40°38' W 074°08'0 0.0
2017-Oct-15 21:30N 40°38' W 074°08'0 0.0
2017-Oct-15 21:00N 40°38' W 074°08'0 0.0
2017-Oct-15 20:30N 40°38' W 074°08'0 0.0
2017-Oct-15 19:59N 40°38' W 074°08'0 0.0
2017-Oct-15 19:29N 40°38' W 074°08'0 0.0
2017-Oct-15 18:59N 40°38' W 074°08'0 0.0
2017-Oct-15 18:30N 40°38' W 074°08'0 0.0
2017-Oct-15 17:58N 40°38' W 074°08'0 0.0
2017-Oct-15 17:30N 40°38' W 074°08'0 0.1
2017-Oct-15 17:00N 40°38' W 074°08'0 0.0
2017-Oct-15 16:30N 40°38' W 074°08'0 0.0
2017-Oct-15 16:00N 40°38' W 074°08'0 0.0
2017-Oct-15 15:30N 40°38' W 074°08'0 0.0
2017-Oct-15 15:00N 40°38' W 074°08'0 0.0
2017-Oct-15 14:00N 40°38' W 074°08'0 0.0
2017-Oct-15 13:30N 40°38' W 074°08'0 0.0
2017-Oct-15 13:00N 40°38' W 074°08'0 0.0
2017-Oct-15 12:30N 40°38' W 074°08'0 0.0
2017-Oct-15 12:00N 40°38' W 074°08'4 8.7
2017-Oct-15 11:30N 40°40' W 074°03'510.6
2017-Oct-15 11:00N 40°45' W 074°01'1 1.8
2017-Oct-15 10:30N 40°46' W 073°60'1 2.2
2017-Oct-15 10:00N 40°45' W 074°01'1 1.4
2017-Oct-15 09:30N 40°45' W 074°01'4 7.2
2017-Oct-15 09:01N 40°41' W 074°02'510.0
2017-Oct-15 08:30N 40°38' W 074°08'0 0.0
2017-Oct-15 08:00N 40°38' W 074°08'0 0.0
2017-Oct-15 07:30N 40°38' W 074°08'0 0.0
2017-Oct-15 07:00N 40°38' W 074°08'0 0.0
2017-Oct-15 06:30N 40°38' W 074°08'0 0.0
2017-Oct-15 05:58N 40°38' W 074°08'0 0.0
2017-Oct-15 04:56N 40°38' W 074°08'2 5.8
2017-Oct-15 04:30N 40°39' W 074°11'3 5.4
2017-Oct-15 03:57N 40°36' W 074°12'1 0.6
2017-Oct-15 02:59N 40°35' W 074°12'1 0.3
2017-Oct-15 01:04N 40°35' W 074°13'1 8.9
2017-Oct-15 00:55N 40°33' W 074°13'1 2.8
2017-Oct-15 00:30N 40°35' W 074°13'2 4.0
2017-Oct-15 00:00N 40°36' W 074°12'0 0.0
2017-Oct-14 23:30N 40°36' W 074°12'3 5.7
2017-Oct-14 22:59N 40°39' W 074°10'2 3.2
2017-Oct-14 22:28N 40°38' W 074°08'0 0.0
2017-Oct-14 21:59N 40°38' W 074°08'0 0.0
2017-Oct-14 21:29N 40°38' W 074°08'2 4.4
2017-Oct-14 21:00N 40°41' W 074°09'0 0.4
2017-Oct-14 20:30N 40°40' W 074°08'2 3.7
2017-Oct-14 20:00N 40°39' W 074°08'4 7.6
2017-Oct-14 19:30N 40°38' W 074°03'3 6.2
2017-Oct-14 19:00N 40°39' W 074°07'0 0.8
2017-Oct-14 18:30N 40°39' W 074°08'0 0.0
2017-Oct-14 18:00N 40°39' W 074°08'1 2.7
2017-Oct-14 17:30N 40°39' W 074°10'6 4.0
2017-Oct-14 15:56N 40°33' W 074°14'3 7.3
2017-Oct-14 15:30N 40°36' W 074°12'4 7.7
2017-Oct-14 14:59N 40°38' W 074°08'0 0.0
2017-Oct-14 14:30N 40°38' W 074°08'0 0.0
2017-Oct-14 14:00N 40°38' W 074°08'0 0.0
2017-Oct-14 13:30N 40°38' W 074°08'0 0.0
2017-Oct-14 12:59N 40°38' W 074°08'0 0.0
2017-Oct-14 12:29N 40°38' W 074°08'0 0.0
2017-Oct-14 12:00N 40°38' W 074°08'0 0.7
2017-Oct-14 11:30N 40°39' W 074°08'1 2.5
2017-Oct-14 11:00N 40°40' W 074°09'0 1.0
2017-Oct-14 10:30N 40°39' W 074°09'2 3.4
2017-Oct-14 10:00N 40°39' W 074°07'3 6.0
2017-Oct-14 09:30N 40°38' W 074°03'4 2.2
2017-Oct-14 07:51N 40°38' W 074°08'0 0.0
2017-Oct-14 07:30N 40°38' W 074°08'0 0.0
2017-Oct-14 07:00N 40°38' W 074°08'0 0.0
2017-Oct-14 06:28N 40°38' W 074°08'0 0.0
2017-Oct-14 04:58N 40°38' W 074°08'0 0.0
2017-Oct-14 04:29N 40°38' W 074°08'0 0.0
2017-Oct-14 04:00N 40°38' W 074°08'0 0.0
2017-Oct-14 03:26N 40°38' W 074°08'1 0.7
2017-Oct-14 02:04N 40°39' W 074°07'0 1.1
2017-Oct-14 01:58N 40°39' W 074°07'1 2.3
2017-Oct-14 01:30N 40°39' W 074°05'0 0.0
2017-Oct-14 01:00N 40°39' W 074°05'2 4.1
2017-Oct-14 00:30N 40°38' W 074°08'0 0.0
2017-Oct-14 00:00N 40°38' W 074°08'0 0.0
2017-Oct-13 23:30N 40°38' W 074°08'0 0.0
2017-Oct-13 23:00N 40°38' W 074°08'0 0.0
2017-Oct-13 22:30N 40°38' W 074°08'0 0.0
2017-Oct-13 22:00N 40°38' W 074°08'0 0.0
2017-Oct-13 21:30N 40°38' W 074°08'0 0.0
2017-Oct-13 21:00N 40°38' W 074°08'0 0.0
2017-Oct-13 20:30N 40°38' W 074°08'0 0.0
2017-Oct-13 19:29N 40°38' W 074°08'0 0.0
2017-Oct-13 19:00N 40°38' W 074°08'0 0.0
2017-Oct-13 18:29N 40°38' W 074°08'0 0.0
2017-Oct-13 18:00N 40°38' W 074°08'0 0.3
2017-Oct-13 17:30N 40°39' W 074°08'1 2.8
2017-Oct-13 17:00N 40°40' W 074°09'0 0.8
2017-Oct-13 16:30N 40°39' W 074°09'2 3.4
2017-Oct-13 16:00N 40°39' W 074°07'3 5.4
2017-Oct-13 15:30N 40°38' W 074°03'4 7.9
2017-Oct-13 15:00N 40°39' W 074°08'2 4.4
2017-Oct-13 14:30N 40°41' W 074°09'0 0.0
2017-Oct-13 14:00N 40°41' W 074°09'1 1.1
2017-Oct-13 13:30N 40°40' W 074°08'2 3.5
2017-Oct-13 13:00N 40°39' W 074°08'3 5.6
2017-Oct-13 12:30N 40°39' W 074°05'3 6.3
2017-Oct-13 12:00N 40°36' W 074°03'4 7.0
2017-Oct-13 11:29N 40°39' W 074°06'1 2.5
2017-Oct-13 10:55N 40°38' W 074°08'3 7.3
2017-Oct-13 10:30N 40°39' W 074°04'1 2.4
2017-Oct-13 10:00N 40°40' W 074°04'1 1.2
2017-Oct-13 09:30N 40°40' W 074°05'0 0.4
2017-Oct-13 09:00N 40°40' W 074°05'2 3.1
2017-Oct-13 08:30N 40°39' W 074°06'2 2.8
2017-Oct-13 07:55N 40°38' W 074°08'0 0.0
2017-Oct-13 07:29N 40°38' W 074°08'0 0.0
2017-Oct-13 07:00N 40°38' W 074°08'0 0.0
2017-Oct-13 06:30N 40°38' W 074°08'0 0.0
2017-Oct-13 06:00N 40°38' W 074°08'0 0.0
2017-Oct-13 05:30N 40°38' W 074°08'0 0.0
2017-Oct-13 05:00N 40°38' W 074°08'0 0.0
2017-Oct-13 04:30N 40°38' W 074°08'0 0.0
2017-Oct-13 04:00N 40°38' W 074°08'0 0.0
2017-Oct-13 03:30N 40°38' W 074°08'1 2.0
2017-Oct-13 03:00N 40°39' W 074°09'2 3.7
2017-Oct-13 02:30N 40°41' W 074°09'0 0.1
2017-Oct-13 02:00N 40°41' W 074°09'2 4.5
2017-Oct-13 01:26N 40°38' W 074°08'0 0.0
2017-Oct-13 01:00N 40°38' W 074°08'1 2.9
2017-Oct-13 00:30N 40°40' W 074°09'2 3.1
2017-Oct-12 23:59N 40°41' W 074°08'0 0.0
2017-Oct-12 22:58N 40°41' W 074°08'0 0.0
2017-Oct-12 22:30N 40°41' W 074°08'1 1.0
2017-Oct-12 22:00N 40°42' W 074°08'2 3.4
2017-Oct-12 21:30N 40°40' W 074°08'2 3.8
2017-Oct-12 21:00N 40°39' W 074°06'3 6.0
2017-Oct-12 20:30N 40°37' W 074°03'2 4.8
2017-Oct-12 20:00N 40°39' W 074°06'1 1.6
2017-Oct-12 19:28N 40°39' W 074°07'2 3.6
2017-Oct-12 19:00N 40°40' W 074°08'1 2.3
2017-Oct-12 18:30N 40°41' W 074°09'0 0.6
2017-Oct-12 18:00N 40°41' W 074°09'2 4.9
2017-Oct-12 17:29N 40°38' W 074°08'0 0.0
2017-Oct-12 16:44N 40°38' W 074°08'0 0.0
2017-Oct-12 16:26N 40°38' W 074°08'0 0.0
2017-Oct-12 16:00N 40°38' W 074°08'1 2.1
2017-Oct-12 15:30N 40°39' W 074°09'2 3.9
2017-Oct-12 15:00N 40°41' W 074°09'0 0.6
2017-Oct-12 14:31N 40°41' W 074°09'2 4.3
2017-Oct-12 14:00N 40°39' W 074°08'0 1.0
2017-Oct-12 13:31N 40°38' W 074°08'0 0.0
2017-Oct-12 13:00N 40°38' W 074°08'0 0.0
2017-Oct-12 12:30N 40°38' W 074°08'0 0.0
2017-Oct-12 12:00N 40°38' W 074°08'0 0.7
2017-Oct-12 11:30N 40°39' W 074°08'2 2.1
2017-Oct-12 10:30N 40°41' W 074°08'1 2.2
2017-Oct-12 10:00N 40°40' W 074°09'1 2.5
2017-Oct-12 09:30N 40°39' W 074°08'3 5.1
2017-Oct-12 08:59N 40°39' W 074°04'3 5.4
2017-Oct-12 08:30N 40°36' W 074°03'3 5.0
2017-Oct-12 08:00N 40°39' W 074°04'1 0.7
2017-Oct-12 06:42N 40°39' W 074°05'0 0.0
2017-Oct-12 06:28N 40°39' W 074°05'0 0.4
2017-Oct-12 05:59N 40°39' W 074°05'1 2.4
2017-Oct-12 05:30N 40°39' W 074°04'3 1.7
2017-Oct-12 03:39N 40°38' W 074°08'0 0.0
2017-Oct-12 03:26N 40°38' W 074°08'0 0.0
2017-Oct-12 02:58N 40°38' W 074°08'0 0.0
2017-Oct-12 02:30N 40°38' W 074°08'0 0.0
2017-Oct-12 01:57N 40°38' W 074°08'0 0.0
2017-Oct-12 00:25N 40°38' W 074°08'0 0.0
2017-Oct-11 23:12N 40°38' W 074°08'0 0.1
2017-Oct-11 22:52N 40°38' W 074°08'2 4.6
2017-Oct-11 22:30N 40°39' W 074°10'1 2.3
2017-Oct-11 22:00N 40°38' W 074°11'3 5.4
2017-Oct-11 21:30N 40°38' W 074°08'0 0.0
2017-Oct-11 21:00N 40°38' W 074°08'0 0.0
2017-Oct-11 20:30N 40°38' W 074°08'1 2.3
2017-Oct-11 20:00N 40°39' W 074°09'1 2.7
2017-Oct-11 19:30N 40°41' W 074°09'0 0.0
2017-Oct-11 19:00N 40°41' W 074°09'1 1.5
2017-Oct-11 18:30N 40°40' W 074°08'2 3.4
2017-Oct-11 18:00N 40°38' W 074°08'0 0.0
2017-Oct-11 17:30N 40°38' W 074°08'0 0.7
2017-Oct-11 17:00N 40°39' W 074°08'2 0.1
2017-Oct-11 00:00N 40°39' W 074°06'2 4.4
2017-Oct-10 23:30N 40°39' W 074°09'2 3.4
2017-Oct-10 23:00N 40°40' W 074°08'1 1.1
2017-Oct-10 22:28N 40°41' W 074°09'2 4.9
2017-Oct-10 22:00N 40°39' W 074°09'1 0.3
2017-Oct-10 20:12N 40°38' W 074°08'0 0.0
2017-Oct-10 20:00N 40°38' W 074°08'0 0.0
2017-Oct-10 19:24N 40°38' W 074°08'0 0.0
2017-Oct-10 18:57N 40°38' W 074°08'0 0.0
2017-Oct-10 18:27N 40°38' W 074°08'0 0.0
2017-Oct-10 17:58N 40°38' W 074°08'0 0.0
2017-Oct-10 17:22N 40°38' W 074°08'0 0.0
2017-Oct-10 16:59N 40°38' W 074°08'1 2.5
2017-Oct-10 16:30N 40°39' W 074°09'0 0.6
2017-Oct-10 16:00N 40°40' W 074°09'1 1.3
2017-Oct-10 15:30N 40°39' W 074°09'2 4.5
2017-Oct-10 15:00N 40°39' W 074°06'3 3.0
2017-Oct-10 14:00N 40°37' W 074°03'4 8.0
2017-Oct-10 13:30N 40°39' W 074°08'0 0.2
2017-Oct-10 12:59N 40°38' W 074°08'0 0.0
2017-Oct-10 12:23N 40°38' W 074°08'0 0.0
2017-Oct-10 12:00N 40°38' W 074°08'0 0.0
2017-Oct-10 11:30N 40°38' W 074°08'0 0.0
2017-Oct-10 11:00N 40°38' W 074°08'0 0.0
2017-Oct-10 10:30N 40°38' W 074°08'2 4.5
2017-Oct-10 10:01N 40°41' W 074°08'0 0.7
2017-Oct-10 09:30N 40°40' W 074°08'2 3.2
2017-Oct-10 09:00N 40°39' W 074°08'3 5.2
2017-Oct-10 08:30N 40°39' W 074°05'3 6.7
2017-Oct-10 08:00N 40°36' W 074°03'3 6.8
2017-Oct-10 07:31N 40°39' W 074°05'2 3.8
2017-Oct-10 06:58N 40°38' W 074°08'0 0.0
2017-Oct-10 06:28N 40°38' W 074°08'0 0.0
2017-Oct-10 05:58N 40°38' W 074°08'0 0.0
2017-Oct-10 05:28N 40°38' W 074°08'0 0.0
2017-Oct-10 04:58N 40°38' W 074°08'0 0.0
2017-Oct-10 04:28N 40°38' W 074°08'0 0.0
2017-Oct-10 03:55N 40°38' W 074°08'1 2.2
2017-Oct-10 03:29N 40°39' W 074°07'4 9.1
2017-Oct-10 03:00N 40°41' W 074°01'1 1.4
2017-Oct-10 02:29N 40°41' W 074°01'0 0.1
2017-Oct-10 02:01N 40°41' W 074°01'510.3
2017-Oct-10 01:30N 40°39' W 074°07'1 0.1
2017-Oct-09 13:02N 40°38' W 074°08'0 0.0
2017-Oct-09 12:59N 40°38' W 074°08'0 0.1
2017-Oct-09 12:28N 40°38' W 074°08'0 0.0
2017-Oct-09 11:58N 40°38' W 074°08'0 0.0
2017-Oct-09 11:28N 40°38' W 074°08'0 0.0
2017-Oct-09 10:55N 40°38' W 074°08'0 0.0
2017-Oct-09 10:28N 40°38' W 074°08'0 0.0
2017-Oct-09 09:58N 40°38' W 074°08'0 0.0
2017-Oct-09 09:25N 40°38' W 074°08'0 0.0
2017-Oct-09 08:58N 40°38' W 074°08'0 0.0
2017-Oct-09 08:28N 40°38' W 074°08'0 0.0
2017-Oct-09 07:58N 40°38' W 074°08'0 0.0
2017-Oct-09 07:28N 40°38' W 074°08'0 0.0
2017-Oct-09 06:58N 40°38' W 074°08'0 0.0
2017-Oct-09 06:25N 40°38' W 074°08'0 0.0
2017-Oct-09 05:58N 40°38' W 074°08'0 0.0
2017-Oct-09 05:28N 40°38' W 074°08'0 0.0
2017-Oct-09 04:58N 40°38' W 074°08'0 0.0
2017-Oct-09 04:28N 40°38' W 074°08'0 0.0
2017-Oct-09 04:00N 40°38' W 074°08'0 0.0
2017-Oct-09 03:30N 40°38' W 074°08'  
Track history (hours):
 
Tides and Currents Weather Stations Pressure Air Temp Water Temp Dewpoint Dewpoint Depression Visibility Wind Speed Wind Dir Waves Ship Positions

James D. Moran

Owner: Moran Towing Corporation, New Canaan, CT. More information available from US FCC via Universal Licensing System and Coast Guard Vessel Documentation Center.

Last reported at 2017-Oct-19 03:30 UTC. Time now 2017-Oct-19 03:51 UTC.
Position N 40°41' W 074°08'.

Length 28 m; draft 5.2 m.

Type: Tug. MMSI: 367682610.

Date/timePositionNaut miles runAvg speedWind from/ knotsBaromVisibWave heightAir tempDewpointWater temp
2017-Oct-19 03:30N 40°41' W 074°08'0 0.7
2017-Oct-19 03:00N 40°41' W 074°08'3 5.3
2017-Oct-19 02:30N 40°38' W 074°09'3 5.7
2017-Oct-19 02:00N 40°39' W 074°05'2 3.8
2017-Oct-19 01:30N 40°38' W 074°03'2 4.3
2017-Oct-19 01:01N 40°40' W 074°04'0 0.0
2017-Oct-19 00:30N 40°40' W 074°04'1 1.7
2017-Oct-19 00:00N 40°40' W 074°03'2 4.3
2017-Oct-18 23:30N 40°41' W 074°01'0 0.2
2017-Oct-18 23:01N 40°41' W 074°01'1 1.8
2017-Oct-18 22:30N 40°41' W 074°02'5 9.7
2017-Oct-18 22:00N 40°39' W 074°08'2 4.5
2017-Oct-18 21:30N 40°39' W 074°11'1 1.1
2017-Oct-18 21:00N 40°39' W 074°11'1 2.0
2017-Oct-18 20:30N 40°39' W 074°10'2 1.7
2017-Oct-18 19:31N 40°38' W 074°08'0 0.3
2017-Oct-18 19:30N 40°39' W 074°08'0 0.0
2017-Oct-18 19:00N 40°38' W 074°08'3 5.6
2017-Oct-18 18:31N 40°39' W 074°04'3 5.9
2017-Oct-18 18:00N 40°39' W 074°08'1 2.8
2017-Oct-18 17:30N 40°40' W 074°09'0 0.2
2017-Oct-18 17:00N 40°40' W 074°09'2 3.2
2017-Oct-18 16:30N 40°38' W 074°08'0 0.0
2017-Oct-18 16:00N 40°38' W 074°08'0 0.0
2017-Oct-18 14:48N 40°38' W 074°08'0 0.0
2017-Oct-18 12:51N 40°38' W 074°08'0 0.0
2017-Oct-18 12:07N 40°38' W 074°08'0 0.0
2017-Oct-18 12:00N 40°38' W 074°08'0 0.0
2017-Oct-18 11:30N 40°38' W 074°08'1 1.1
2017-Oct-18 11:00N 40°39' W 074°09'2 4.5
2017-Oct-18 10:30N 40°41' W 074°09'0 0.8
2017-Oct-18 10:01N 40°41' W 074°08'2 3.2
2017-Oct-18 09:30N 40°39' W 074°09'2 5.0
2017-Oct-18 09:00N 40°39' W 074°06'3 5.7
2017-Oct-18 08:30N 40°37' W 074°03'1 2.7
2017-Oct-18 08:00N 40°38' W 074°04'0 0.0
2017-Oct-18 07:30N 40°38' W 074°04'0 0.0
2017-Oct-18 07:01N 40°38' W 074°04'2 4.3
2017-Oct-18 06:30N 40°40' W 074°04'0 0.9
2017-Oct-18 06:00N 40°40' W 074°05'3 5.5
2017-Oct-18 05:30N 40°39' W 074°08'0 0.2
2017-Oct-18 05:00N 40°38' W 074°08'0 0.0
2017-Oct-18 04:30N 40°38' W 074°08'0 0.0
2017-Oct-18 04:00N 40°38' W 074°08'0 0.0
2017-Oct-18 03:30N 40°38' W 074°08'0 0.0
2017-Oct-18 03:00N 40°38' W 074°08'0 0.0
2017-Oct-18 02:30N 40°38' W 074°08'0 0.0
2017-Oct-18 02:00N 40°38' W 074°08'0 0.0
2017-Oct-18 01:30N 40°38' W 074°08'0 0.0
2017-Oct-18 01:00N 40°38' W 074°08'0 0.0
2017-Oct-18 00:30N 40°38' W 074°08'0 0.0
2017-Oct-18 00:00N 40°38' W 074°08'2 4.1
2017-Oct-17 23:30N 40°39' W 074°05'1 2.4
2017-Oct-17 23:00N 40°40' W 074°05'1 3.0
2017-Oct-17 22:30N 40°39' W 074°04'3 6.2
2017-Oct-17 21:59N 40°38' W 074°08'0 0.0
2017-Oct-17 21:30N 40°38' W 074°08'0 0.0
2017-Oct-17 21:00N 40°38' W 074°08'0 0.0
2017-Oct-17 20:30N 40°38' W 074°08'0 0.0
2017-Oct-17 20:00N 40°38' W 074°08'0 0.0
2017-Oct-17 19:30N 40°38' W 074°08'0 0.0
2017-Oct-17 19:00N 40°38' W 074°08'0 0.0
2017-Oct-17 18:29N 40°38' W 074°08'0 0.0
2017-Oct-17 17:59N 40°38' W 074°08'0 0.0
2017-Oct-17 17:30N 40°38' W 074°08'0 0.0
2017-Oct-17 17:00N 40°38' W 074°08'0 0.0
2017-Oct-17 16:30N 40°38' W 074°08'3 5.1
2017-Oct-17 16:00N 40°41' W 074°09'0 0.5
2017-Oct-17 15:30N 40°41' W 074°09'2 3.8
2017-Oct-17 14:54N 40°39' W 074°09'2 5.0
2017-Oct-17 14:29N 40°39' W 074°06'3 5.3
2017-Oct-17 14:00N 40°38' W 074°03'0 0.7
2017-Oct-17 13:30N 40°38' W 074°04'2 4.1
2017-Oct-17 13:00N 40°39' W 074°06'0 0.0
2017-Oct-17 12:30N 40°39' W 074°06'0 0.0
2017-Oct-17 12:00N 40°39' W 074°06'1 2.0
2017-Oct-17 11:30N 40°39' W 074°07'2 3.0
2017-Oct-17 11:00N 40°40' W 074°08'1 2.0
2017-Oct-17 10:30N 40°41' W 074°09'0 0.2
2017-Oct-17 10:00N 40°41' W 074°09'2 4.3
2017-Oct-17 09:30N 40°39' W 074°09'0 0.4
2017-Oct-17 09:00N 40°39' W 074°09'1 1.9
2017-Oct-17 08:30N 40°40' W 074°09'0 0.0
2017-Oct-17 08:00N 40°40' W 074°09'1 2.4
2017-Oct-17 07:30N 40°39' W 074°09'1 1.0
2017-Oct-17 06:50N 40°38' W 074°08'0 0.0
2017-Oct-17 06:29N 40°38' W 074°08'0 0.2
2017-Oct-17 06:00N 40°39' W 074°08'4 7.7
2017-Oct-17 05:30N 40°37' W 074°03'1 1.5
2017-Oct-17 05:00N 40°37' W 074°03'3 5.3
2017-Oct-17 04:30N 40°39' W 074°06'0 0.4
2017-Oct-17 03:43N 40°39' W 074°07'1 4.5
2017-Oct-17 03:30N 40°38' W 074°08'0 0.0
2017-Oct-17 03:00N 40°38' W 074°08'0 0.0
2017-Oct-17 02:30N 40°38' W 074°08'0 0.0
2017-Oct-17 02:00N 40°38' W 074°08'0 0.0
2017-Oct-17 01:30N 40°38' W 074°08'0 0.0
2017-Oct-17 01:00N 40°38' W 074°08'0 0.0
2017-Oct-17 00:30N 40°38' W 074°08'0 0.0
2017-Oct-17 00:00N 40°38' W 074°08'0 0.0
2017-Oct-16 23:30N 40°38' W 074°08'0 0.0
2017-Oct-16 23:00N 40°38' W 074°08'0 0.0
2017-Oct-16 22:30N 40°38' W 074°08'0 0.4
2017-Oct-16 22:00N 40°39' W 074°08'5 9.2
2017-Oct-16 21:30N 40°41' W 074°02'510.4
2017-Oct-16 21:00N 40°46' W 074°00'0 0.6
2017-Oct-16 20:30N 40°46' W 074°00'1 2.6
2017-Oct-16 20:00N 40°45' W 074°01'5 9.6
2017-Oct-16 19:30N 40°40' W 074°03'2 3.5
2017-Oct-16 19:00N 40°40' W 074°05'0 0.0
2017-Oct-16 18:30N 40°40' W 074°05'1 2.0
2017-Oct-16 18:00N 40°40' W 074°04'3 5.6
2017-Oct-16 17:30N 40°37' W 074°03'3 5.4
2017-Oct-16 17:01N 40°39' W 074°06'0 0.1
2017-Oct-16 16:30N 40°39' W 074°06'0 0.8
2017-Oct-16 16:00N 40°39' W 074°05'0 0.0
2017-Oct-16 15:30N 40°39' W 074°05'0 0.1
2017-Oct-16 15:00N 40°39' W 074°05'3 5.5
2017-Oct-16 14:30N 40°39' W 074°09'1 1.1
2017-Oct-16 13:30N 40°40' W 074°09'0 0.0
2017-Oct-16 12:59N 40°40' W 074°09'0 0.0
2017-Oct-16 12:30N 40°40' W 074°09'1 2.5
2017-Oct-16 12:00N 40°41' W 074°09'1 1.5
2017-Oct-16 11:30N 40°40' W 074°08'2 3.3
2017-Oct-16 11:00N 40°39' W 074°08'3 5.2
2017-Oct-16 10:30N 40°39' W 074°05'3 5.9
2017-Oct-16 10:01N 40°36' W 074°03'2 3.9
2017-Oct-16 09:30N 40°38' W 074°04'3 6.3
2017-Oct-16 09:00N 40°38' W 074°08'0 0.0
2017-Oct-16 08:22N 40°38' W 074°08'0 0.0
2017-Oct-16 08:00N 40°38' W 074°08'0 0.0
2017-Oct-16 07:30N 40°38' W 074°08'0 0.0
2017-Oct-16 07:00N 40°38' W 074°08'0 0.0
2017-Oct-16 06:30N 40°38' W 074°08'0 0.0
2017-Oct-16 06:00N 40°38' W 074°08'0 0.0
2017-Oct-16 05:30N 40°38' W 074°08'0 0.0
2017-Oct-16 04:59N 40°38' W 074°08'1 2.7
2017-Oct-16 04:30N 40°39' W 074°06'511.0
2017-Oct-16 04:01N 40°43' W 074°01'3 6.4
2017-Oct-16 03:30N 40°46' W 073°60'0 0.1
2017-Oct-16 03:01N 40°46' W 073°60'0 0.3
2017-Oct-16 02:30N 40°46' W 073°60'2 4.2
2017-Oct-16 02:01N 40°44' W 074°01'611.3
2017-Oct-16 01:30N 40°39' W 074°04'3 5.8
2017-Oct-16 01:00N 40°38' W 074°08'0 0.0
2017-Oct-16 00:29N 40°38' W 074°08'0 0.0
2017-Oct-16 00:00N 40°38' W 074°08'0 0.0
2017-Oct-15 23:30N 40°38' W 074°08'0 0.0
2017-Oct-15 23:00N 40°38' W 074°08'0 0.0
2017-Oct-15 22:30N 40°38' W 074°08'0 0.0
2017-Oct-15 21:59N 40°38' W 074°08'0 0.0
2017-Oct-15 21:30N 40°38' W 074°08'0 0.0
2017-Oct-15 21:00N 40°38' W 074°08'0 0.0
2017-Oct-15 20:30N 40°38' W 074°08'0 0.0
2017-Oct-15 19:59N 40°38' W 074°08'0 0.0
2017-Oct-15 19:29N 40°38' W 074°08'0 0.0
2017-Oct-15 18:59N 40°38' W 074°08'0 0.0
2017-Oct-15 18:30N 40°38' W 074°08'0 0.0
2017-Oct-15 17:58N 40°38' W 074°08'0 0.0
2017-Oct-15 17:30N 40°38' W 074°08'0 0.1
2017-Oct-15 17:00N 40°38' W 074°08'0 0.0
2017-Oct-15 16:30N 40°38' W 074°08'0 0.0
2017-Oct-15 16:00N 40°38' W 074°08'0 0.0
2017-Oct-15 15:30N 40°38' W 074°08'0 0.0
2017-Oct-15 15:00N 40°38' W 074°08'0 0.0
2017-Oct-15 14:00N 40°38' W 074°08'0 0.0
2017-Oct-15 13:30N 40°38' W 074°08'0 0.0
2017-Oct-15 13:00N 40°38' W 074°08'0 0.0
2017-Oct-15 12:30N 40°38' W 074°08'0 0.0
2017-Oct-15 12:00N 40°38' W 074°08'4 8.7
2017-Oct-15 11:30N 40°40' W 074°03'510.6
2017-Oct-15 11:00N 40°45' W 074°01'1 1.8
2017-Oct-15 10:30N 40°46' W 073°60'1 2.2
2017-Oct-15 10:00N 40°45' W 074°01'1 1.4
2017-Oct-15 09:30N 40°45' W 074°01'4 7.2
2017-Oct-15 09:01N 40°41' W 074°02'510.0
2017-Oct-15 08:30N 40°38' W 074°08'0 0.0
2017-Oct-15 08:00N 40°38' W 074°08'0 0.0
2017-Oct-15 07:30N 40°38' W 074°08'0 0.0
2017-Oct-15 07:00N 40°38' W 074°08'0 0.0
2017-Oct-15 06:30N 40°38' W 074°08'0 0.0
2017-Oct-15 05:58N 40°38' W 074°08'0 0.0
2017-Oct-15 04:56N 40°38' W 074°08'2 5.8
2017-Oct-15 04:30N 40°39' W 074°11'3 5.4
2017-Oct-15 03:57N 40°36' W 074°12'1 0.6
2017-Oct-15 02:59N 40°35' W 074°12'1 0.3
2017-Oct-15 01:04N 40°35' W 074°13'1 8.9
2017-Oct-15 00:55N 40°33' W 074°13'1 2.8
2017-Oct-15 00:30N 40°35' W 074°13'2 4.0
2017-Oct-15 00:00N 40°36' W 074°12'0 0.0
2017-Oct-14 23:30N 40°36' W 074°12'3 5.7
2017-Oct-14 22:59N 40°39' W 074°10'2 3.2
2017-Oct-14 22:28N 40°38' W 074°08'0 0.0
2017-Oct-14 21:59N 40°38' W 074°08'0 0.0
2017-Oct-14 21:29N 40°38' W 074°08'2 4.4
2017-Oct-14 21:00N 40°41' W 074°09'0 0.4
2017-Oct-14 20:30N 40°40' W 074°08'2 3.7
2017-Oct-14 20:00N 40°39' W 074°08'4 7.6
2017-Oct-14 19:30N 40°38' W 074°03'3 6.2
2017-Oct-14 19:00N 40°39' W 074°07'0 0.8
2017-Oct-14 18:30N 40°39' W 074°08'0 0.0
2017-Oct-14 18:00N 40°39' W 074°08'1 2.7
2017-Oct-14 17:30N 40°39' W 074°10'6 4.0
2017-Oct-14 15:56N 40°33' W 074°14'3 7.3
2017-Oct-14 15:30N 40°36' W 074°12'4 7.7
2017-Oct-14 14:59N 40°38' W 074°08'0 0.0
2017-Oct-14 14:30N 40°38' W 074°08'0 0.0
2017-Oct-14 14:00N 40°38' W 074°08'0 0.0
2017-Oct-14 13:30N 40°38' W 074°08'0 0.0
2017-Oct-14 12:59N 40°38' W 074°08'0 0.0
2017-Oct-14 12:29N 40°38' W 074°08'0 0.0
2017-Oct-14 12:00N 40°38' W 074°08'0 0.7
2017-Oct-14 11:30N 40°39' W 074°08'1 2.5
2017-Oct-14 11:00N 40°40' W 074°09'0 1.0
2017-Oct-14 10:30N 40°39' W 074°09'2 3.4
2017-Oct-14 10:00N 40°39' W 074°07'3 6.0
2017-Oct-14 09:30N 40°38' W 074°03'4 2.2
2017-Oct-14 07:51N 40°38' W 074°08'0 0.0
2017-Oct-14 07:30N 40°38' W 074°08'0 0.0
2017-Oct-14 07:00N 40°38' W 074°08'0 0.0
2017-Oct-14 06:28N 40°38' W 074°08'0 0.0
2017-Oct-14 04:58N 40°38' W 074°08'0 0.0
2017-Oct-14 04:29N 40°38' W 074°08'0 0.0
2017-Oct-14 04:00N 40°38' W 074°08'0 0.0
2017-Oct-14 03:26N 40°38' W 074°08'1 0.7
2017-Oct-14 02:04N 40°39' W 074°07'0 1.1
2017-Oct-14 01:58N 40°39' W 074°07'1 2.3
2017-Oct-14 01:30N 40°39' W 074°05'0 0.0
2017-Oct-14 01:00N 40°39' W 074°05'2 4.1
2017-Oct-14 00:30N 40°38' W 074°08'0 0.0
2017-Oct-14 00:00N 40°38' W 074°08'0 0.0
2017-Oct-13 23:30N 40°38' W 074°08'0 0.0
2017-Oct-13 23:00N 40°38' W 074°08'0 0.0
2017-Oct-13 22:30N 40°38' W 074°08'0 0.0
2017-Oct-13 22:00N 40°38' W 074°08'0 0.0
2017-Oct-13 21:30N 40°38' W 074°08'0 0.0
2017-Oct-13 21:00N 40°38' W 074°08'0 0.0
2017-Oct-13 20:30N 40°38' W 074°08'0 0.0
2017-Oct-13 19:29N 40°38' W 074°08'0 0.0
2017-Oct-13 19:00N 40°38' W 074°08'0 0.0
2017-Oct-13 18:29N 40°38' W 074°08'0 0.0
2017-Oct-13 18:00N 40°38' W 074°08'0 0.3
2017-Oct-13 17:30N 40°39' W 074°08'1 2.8
2017-Oct-13 17:00N 40°40' W 074°09'0 0.8
2017-Oct-13 16:30N 40°39' W 074°09'2 3.4
2017-Oct-13 16:00N 40°39' W 074°07'3 5.4
2017-Oct-13 15:30N 40°38' W 074°03'4 7.9
2017-Oct-13 15:00N 40°39' W 074°08'2 4.4
2017-Oct-13 14:30N 40°41' W 074°09'0 0.0
2017-Oct-13 14:00N 40°41' W 074°09'1 1.1
2017-Oct-13 13:30N 40°40' W 074°08'2 3.5
2017-Oct-13 13:00N 40°39' W 074°08'3 5.6
2017-Oct-13 12:30N 40°39' W 074°05'3 6.3
2017-Oct-13 12:00N 40°36' W 074°03'4 7.0
2017-Oct-13 11:29N 40°39' W 074°06'1 2.5
2017-Oct-13 10:55N 40°38' W 074°08'3 7.3
2017-Oct-13 10:30N 40°39' W 074°04'1 2.4
2017-Oct-13 10:00N 40°40' W 074°04'1 1.2
2017-Oct-13 09:30N 40°40' W 074°05'0 0.4
2017-Oct-13 09:00N 40°40' W 074°05'2 3.1
2017-Oct-13 08:30N 40°39' W 074°06'2 2.8
2017-Oct-13 07:55N 40°38' W 074°08'0 0.0
2017-Oct-13 07:29N 40°38' W 074°08'0 0.0
2017-Oct-13 07:00N 40°38' W 074°08'0 0.0
2017-Oct-13 06:30N 40°38' W 074°08'0 0.0
2017-Oct-13 06:00N 40°38' W 074°08'0 0.0
2017-Oct-13 05:30N 40°38' W 074°08'0 0.0
2017-Oct-13 05:00N 40°38' W 074°08'0 0.0
2017-Oct-13 04:30N 40°38' W 074°08'0 0.0
2017-Oct-13 04:00N 40°38' W 074°08'0 0.0
2017-Oct-13 03:30N 40°38' W 074°08'1 2.0
2017-Oct-13 03:00N 40°39' W 074°09'2 3.7
2017-Oct-13 02:30N 40°41' W 074°09'0 0.1
2017-Oct-13 02:00N 40°41' W 074°09'2 4.5
2017-Oct-13 01:26N 40°38' W 074°08'0 0.0
2017-Oct-13 01:00N 40°38' W 074°08'1 2.9
2017-Oct-13 00:30N 40°40' W 074°09'2 3.1
2017-Oct-12 23:59N 40°41' W 074°08'0 0.0
2017-Oct-12 22:58N 40°41' W 074°08'0 0.0
2017-Oct-12 22:30N 40°41' W 074°08'1 1.0
2017-Oct-12 22:00N 40°42' W 074°08'2 3.4
2017-Oct-12 21:30N 40°40' W 074°08'2 3.8
2017-Oct-12 21:00N 40°39' W 074°06'3 6.0
2017-Oct-12 20:30N 40°37' W 074°03'2 4.8
2017-Oct-12 20:00N 40°39' W 074°06'1 1.6
2017-Oct-12 19:28N 40°39' W 074°07'2 3.6
2017-Oct-12 19:00N 40°40' W 074°08'1 2.3
2017-Oct-12 18:30N 40°41' W 074°09'0 0.6
2017-Oct-12 18:00N 40°41' W 074°09'2 4.9
2017-Oct-12 17:29N 40°38' W 074°08'0 0.0
2017-Oct-12 16:44N 40°38' W 074°08'0 0.0
2017-Oct-12 16:26N 40°38' W 074°08'0 0.0
2017-Oct-12 16:00N 40°38' W 074°08'1 2.1
2017-Oct-12 15:30N 40°39' W 074°09'2 3.9
2017-Oct-12 15:00N 40°41' W 074°09'0 0.6
2017-Oct-12 14:31N 40°41' W 074°09'2 4.3
2017-Oct-12 14:00N 40°39' W 074°08'0 1.0
2017-Oct-12 13:31N 40°38' W 074°08'0 0.0
2017-Oct-12 13:00N 40°38' W 074°08'0 0.0
2017-Oct-12 12:30N 40°38' W 074°08'0 0.0
2017-Oct-12 12:00N 40°38' W 074°08'0 0.7
2017-Oct-12 11:30N 40°39' W 074°08'2 2.1
2017-Oct-12 10:30N 40°41' W 074°08'1 2.2
2017-Oct-12 10:00N 40°40' W 074°09'1 2.5
2017-Oct-12 09:30N 40°39' W 074°08'3 5.1
2017-Oct-12 08:59N 40°39' W 074°04'3 5.4
2017-Oct-12 08:30N 40°36' W 074°03'3 5.0
2017-Oct-12 08:00N 40°39' W 074°04'1 0.7
2017-Oct-12 06:42N 40°39' W 074°05'0 0.0
2017-Oct-12 06:28N 40°39' W 074°05'0 0.4
2017-Oct-12 05:59N 40°39' W 074°05'1 2.4
2017-Oct-12 05:30N 40°39' W 074°04'3 1.7
2017-Oct-12 03:39N 40°38' W 074°08'0 0.0
2017-Oct-12 03:26N 40°38' W 074°08'0 0.0
2017-Oct-12 02:58N 40°38' W 074°08'0 0.0
2017-Oct-12 02:30N 40°38' W 074°08'0 0.0
2017-Oct-12 01:57N 40°38' W 074°08'0 0.0
2017-Oct-12 00:25N 40°38' W 074°08'0 0.0
2017-Oct-11 23:12N 40°38' W 074°08'0 0.1
2017-Oct-11 22:52N 40°38' W 074°08'2 4.6
2017-Oct-11 22:30N 40°39' W 074°10'1 2.3
2017-Oct-11 22:00N 40°38' W 074°11'3 5.4
2017-Oct-11 21:30N 40°38' W 074°08'0 0.0
2017-Oct-11 21:00N 40°38' W 074°08'0 0.0
2017-Oct-11 20:30N 40°38' W 074°08'1 2.3
2017-Oct-11 20:00N 40°39' W 074°09'1 2.7
2017-Oct-11 19:30N 40°41' W 074°09'0 0.0
2017-Oct-11 19:00N 40°41' W 074°09'1 1.5
2017-Oct-11 18:30N 40°40' W 074°08'2 3.4
2017-Oct-11 18:00N 40°38' W 074°08'0 0.0
2017-Oct-11 17:30N 40°38' W 074°08'0 0.7
2017-Oct-11 17:00N 40°39' W 074°08'2 0.1
2017-Oct-11 00:00N 40°39' W 074°06'2 4.4
2017-Oct-10 23:30N 40°39' W 074°09'2 3.4
2017-Oct-10 23:00N 40°40' W 074°08'1 1.1
2017-Oct-10 22:28N 40°41' W 074°09'2 4.9
2017-Oct-10 22:00N 40°39' W 074°09'1 0.3
2017-Oct-10 20:12N 40°38' W 074°08'0 0.0
2017-Oct-10 20:00N 40°38' W 074°08'0 0.0
2017-Oct-10 19:24N 40°38' W 074°08'0 0.0
2017-Oct-10 18:57N 40°38' W 074°08'0 0.0
2017-Oct-10 18:27N 40°38' W 074°08'0 0.0
2017-Oct-10 17:58N 40°38' W 074°08'0 0.0
2017-Oct-10 17:22N 40°38' W 074°08'0 0.0
2017-Oct-10 16:59N 40°38' W 074°08'1 2.5
2017-Oct-10 16:30N 40°39' W 074°09'0 0.6
2017-Oct-10 16:00N 40°40' W 074°09'1 1.3
2017-Oct-10 15:30N 40°39' W 074°09'2 4.5
2017-Oct-10 15:00N 40°39' W 074°06'3 3.0
2017-Oct-10 14:00N 40°37' W 074°03'4 8.0
2017-Oct-10 13:30N 40°39' W 074°08'0 0.2
2017-Oct-10 12:59N 40°38' W 074°08'0 0.0
2017-Oct-10 12:23N 40°38' W 074°08'0 0.0
2017-Oct-10 12:00N 40°38' W 074°08'0 0.0
2017-Oct-10 11:30N 40°38' W 074°08'0 0.0
2017-Oct-10 11:00N 40°38' W 074°08'0 0.0
2017-Oct-10 10:30N 40°38' W 074°08'2 4.5
2017-Oct-10 10:01N 40°41' W 074°08'0 0.7
2017-Oct-10 09:30N 40°40' W 074°08'2 3.2
2017-Oct-10 09:00N 40°39' W 074°08'3 5.2
2017-Oct-10 08:30N 40°39' W 074°05'3 6.7
2017-Oct-10 08:00N 40°36' W 074°03'3 6.8
2017-Oct-10 07:31N 40°39' W 074°05'2 3.8
2017-Oct-10 06:58N 40°38' W 074°08'0 0.0
2017-Oct-10 06:28N 40°38' W 074°08'0 0.0
2017-Oct-10 05:58N 40°38' W 074°08'0 0.0
2017-Oct-10 05:28N 40°38' W 074°08'0 0.0
2017-Oct-10 04:58N 40°38' W 074°08'0 0.0
2017-Oct-10 04:28N 40°38' W 074°08'0 0.0
2017-Oct-10 03:55N 40°38' W 074°08'1 2.2
2017-Oct-10 03:29N 40°39' W 074°07'4 9.1
2017-Oct-10 03:00N 40°41' W 074°01'1 1.4
2017-Oct-10 02:29N 40°41' W 074°01'0 0.1
2017-Oct-10 02:01N 40°41' W 074°01'510.3
2017-Oct-10 01:30N 40°39' W 074°07'1 0.1
2017-Oct-09 13:02N 40°38' W 074°08'0 0.0
2017-Oct-09 12:59N 40°38' W 074°08'0 0.1
2017-Oct-09 12:28N 40°38' W 074°08'0 0.0
2017-Oct-09 11:58N 40°38' W 074°08'0 0.0
2017-Oct-09 11:28N 40°38' W 074°08'0 0.0
2017-Oct-09 10:55N 40°38' W 074°08'0 0.0
2017-Oct-09 10:28N 40°38' W 074°08'0 0.0
2017-Oct-09 09:58N 40°38' W 074°08'0 0.0
2017-Oct-09 09:25N 40°38' W 074°08'0 0.0
2017-Oct-09 08:58N 40°38' W 074°08'0 0.0
2017-Oct-09 08:28N 40°38' W 074°08'0 0.0
2017-Oct-09 07:58N 40°38' W 074°08'0 0.0
2017-Oct-09 07:28N 40°38' W 074°08'0 0.0
2017-Oct-09 06:58N 40°38' W 074°08'0 0.0
2017-Oct-09 06:25N 40°38' W 074°08'0 0.0
2017-Oct-09 05:58N 40°38' W 074°08'0 0.0
2017-Oct-09 05:28N 40°38' W 074°08'0 0.0
2017-Oct-09 04:58N 40°38' W 074°08'0 0.0
2017-Oct-09 04:28N 40°38' W 074°08'0 0.0
2017-Oct-09 04:00N 40°38' W 074°08'0 0.0
2017-Oct-09 03:30N 40°38' W 074°08'  

Dump ship's entire track history